createdAt,value
2022-11-30T00:01:13.399Z,46.40
2022-11-30T00:03:45.157Z,43.80
2022-11-30T00:06:22.934Z,40.03
2022-11-30T00:08:58.552Z,41.33
2022-11-30T00:11:30.768Z,43.77
2022-11-30T00:14:02.523Z,40.57
2022-11-30T00:16:34.260Z,40.40
2022-11-30T00:19:06.013Z,38.47
2022-11-30T00:21:37.696Z,46.97
2022-11-30T00:24:09.546Z,46.83
2022-11-30T00:26:41.403Z,40.90
2022-11-30T00:29:13.220Z,50.83
2022-11-30T00:31:45.064Z,42.20
2022-11-30T00:34:16.790Z,37.90
2022-11-30T00:36:48.541Z,44.70
2022-11-30T00:39:20.392Z,36.60
2022-11-30T00:41:52.086Z,38.50
2022-11-30T00:44:23.846Z,40.77
2022-11-30T00:46:55.680Z,43.33
2022-11-30T00:49:27.582Z,43.23
2022-11-30T00:51:59.800Z,45.93
2022-11-30T00:54:31.646Z,37.07
2022-11-30T00:57:03.402Z,44.20
2022-11-30T00:59:35.119Z,45.67
2022-11-30T01:02:06.987Z,39.20
2022-11-30T01:04:38.688Z,47.50
2022-11-30T01:07:10.414Z,51.77
2022-11-30T01:09:42.184Z,40.70
2022-11-30T01:12:13.942Z,44.10
2022-11-30T01:14:45.914Z,46.35
2022-11-30T01:17:17.839Z,37.70
2022-11-30T01:19:49.506Z,44.73
2022-11-30T01:22:21.288Z,43.93
2022-11-30T01:24:52.981Z,44.23
2022-11-30T01:27:24.713Z,53.43
2022-11-30T01:29:56.747Z,54.53
2022-11-30T01:32:28.533Z,51.07
2022-11-30T01:35:00.235Z,49.97
2022-11-30T01:37:32.078Z,43.00
2022-11-30T01:40:04.614Z,54.00
2022-11-30T01:42:38.056Z,46.27
2022-11-30T01:45:13.335Z,47.97
2022-11-30T01:47:49.086Z,44.57
2022-11-30T01:50:32.025Z,45.60
2022-11-30T01:53:05.446Z,40.47
2022-11-30T01:55:42.684Z,44.17
2022-11-30T01:58:20.722Z,57.50
2022-11-30T02:00:52.544Z,46.47
2022-11-30T02:03:34.806Z,47.40
2022-11-30T02:06:07.438Z,48.73
2022-11-30T02:08:39.252Z,50.37
2022-11-30T02:11:14.529Z,44.60
2022-11-30T02:14:20.353Z,46.67
2022-11-30T02:17:11.071Z,49.80
2022-11-30T02:20:16.187Z,49.77
2022-11-30T02:23:09.918Z,45.13
2022-11-30T02:26:05.798Z,35.50
2022-11-30T02:28:51.082Z,46.00
2022-11-30T02:31:28.592Z,42.63
2022-11-30T02:34:03.305Z,46.07
2022-11-30T02:36:35.859Z,49.43
2022-11-30T02:39:09.703Z,50.20
2022-11-30T02:41:41.703Z,43.27
2022-11-30T02:44:14.770Z,47.73
2022-11-30T02:46:53.069Z,47.50
2022-11-30T02:49:45.333Z,43.40
2022-11-30T02:52:19.761Z,40.37
2022-11-30T02:54:52.514Z,46.43
2022-11-30T02:57:24.202Z,38.83
2022-11-30T02:59:57.137Z,39.00
2022-11-30T03:02:28.901Z,46.75
2022-11-30T03:05:00.714Z,38.80
2022-11-30T03:07:32.741Z,43.70
2022-11-30T03:10:05.957Z,38.03
2022-11-30T03:12:38.105Z,41.73
2022-11-30T03:15:10.187Z,39.47
2022-11-30T03:17:41.980Z,45.13
2022-11-30T03:20:13.692Z,34.60
2022-11-30T03:22:45.366Z,33.57
2022-11-30T03:25:17.562Z,38.00
2022-11-30T03:27:49.314Z,33.70
2022-11-30T03:30:21.095Z,33.70
2022-11-30T03:32:52.837Z,40.60
2022-11-30T03:35:24.615Z,36.83
2022-11-30T03:37:56.353Z,35.77
2022-11-30T03:40:28.030Z,33.50
2022-11-30T03:42:59.729Z,36.33
2022-11-30T03:45:31.521Z,38.27
2022-11-30T03:48:03.406Z,40.10
2022-11-30T03:50:35.209Z,35.90
2022-11-30T03:53:06.907Z,29.87
2022-11-30T03:55:38.678Z,32.80
2022-11-30T03:58:10.553Z,34.93
2022-11-30T04:00:42.275Z,33.80
2022-11-30T04:03:14.188Z,36.07
2022-11-30T04:05:47.581Z,26.60
2022-11-30T04:08:19.333Z,25.70
2022-11-30T04:10:52.237Z,32.80
2022-11-30T04:13:24.741Z,27.60
2022-11-30T04:15:56.895Z,29.70
2022-11-30T04:18:30.306Z,31.80
2022-11-30T04:21:02.426Z,31.60
2022-11-30T04:23:36.720Z,28.97
2022-11-30T04:26:12.516Z,34.63
2022-11-30T04:28:44.779Z,29.80
2022-11-30T04:31:16.853Z,25.83
2022-11-30T04:33:52.221Z,24.90
2022-11-30T04:36:23.946Z,27.50
2022-11-30T04:38:55.646Z,27.33
2022-11-30T04:41:27.335Z,25.93
2022-11-30T04:43:59.071Z,27.47
2022-11-30T04:46:30.954Z,25.00
2022-11-30T04:49:03.095Z,26.30
2022-11-30T04:51:34.885Z,26.73
2022-11-30T04:54:06.673Z,27.23
2022-11-30T04:56:38.391Z,27.20
2022-11-30T04:59:10.078Z,26.17
2022-11-30T05:01:41.906Z,31.00
2022-11-30T05:04:13.822Z,23.43
2022-11-30T05:06:45.610Z,29.90
2022-11-30T05:09:17.401Z,27.00
2022-11-30T05:11:49.402Z,22.27
2022-11-30T05:14:21.119Z,24.70
2022-11-30T05:16:52.833Z,25.23
2022-11-30T05:19:24.569Z,18.83
2022-11-30T05:21:56.355Z,30.40
2022-11-30T05:24:28.019Z,22.00
2022-11-30T05:27:00.491Z,27.00
2022-11-30T05:29:32.315Z,22.77
2022-11-30T05:32:04.136Z,24.40
2022-11-30T05:34:49.743Z,25.80
2022-11-30T05:37:22.667Z,23.90
2022-11-30T05:39:54.330Z,23.20
2022-11-30T05:42:26.853Z,22.20
2022-11-30T05:44:58.554Z,22.17
2022-11-30T05:47:30.272Z,26.37
2022-11-30T05:50:02.085Z,22.07
2022-11-30T05:52:33.859Z,26.13
2022-11-30T05:55:06.004Z,21.60
2022-11-30T05:57:39.038Z,22.27
2022-11-30T06:00:11.266Z,21.10
2022-11-30T06:02:43.232Z,24.20
2022-11-30T06:05:15.044Z,25.77
2022-11-30T06:07:46.930Z,22.83
2022-11-30T06:10:18.803Z,22.77
2022-11-30T06:12:50.532Z,20.87
2022-11-30T06:15:22.422Z,25.03
2022-11-30T06:17:55.500Z,26.33
2022-11-30T06:20:27.258Z,25.20
2022-11-30T06:22:59.177Z,25.70
2022-11-30T06:25:32.270Z,28.43
2022-11-30T06:28:08.208Z,23.90
2022-11-30T06:30:39.893Z,29.23
2022-11-30T06:33:11.719Z,27.27
2022-11-30T06:35:47.080Z,29.15
2022-11-30T06:38:18.879Z,29.43
2022-11-30T06:40:50.665Z,29.80
2022-11-30T06:43:22.468Z,24.70
2022-11-30T06:45:54.321Z,21.37
2022-11-30T06:48:26.114Z,23.33
2022-11-30T06:50:58.878Z,34.20
2022-11-30T06:53:30.734Z,27.53
2022-11-30T06:56:10.447Z,28.03
2022-11-30T06:58:42.766Z,25.63
2022-11-30T07:01:15.341Z,25.23
2022-11-30T07:03:47.380Z,27.67
2022-11-30T07:06:19.246Z,32.60
2022-11-30T07:08:51.018Z,30.40
2022-11-30T07:11:22.881Z,32.80
2022-11-30T07:13:54.679Z,27.40
2022-11-30T07:16:26.493Z,34.13
2022-11-30T07:18:58.421Z,30.63
2022-11-30T07:21:30.146Z,32.63
2022-11-30T07:24:20.661Z,35.73
2022-11-30T07:26:52.822Z,30.93
2022-11-30T07:29:24.483Z,34.10
2022-11-30T07:31:56.554Z,36.40
2022-11-30T07:34:28.374Z,30.30
2022-11-30T07:37:00.069Z,28.63
2022-11-30T07:39:31.947Z,36.17
2022-11-30T07:42:03.679Z,27.47
2022-11-30T07:44:35.443Z,30.07
2022-11-30T07:47:07.138Z,25.63
2022-11-30T07:49:39.780Z,24.93
2022-11-30T07:52:11.602Z,34.40
2022-11-30T07:54:43.361Z,28.70
2022-11-30T07:57:15.087Z,32.47
2022-11-30T07:59:46.984Z,29.65
2022-11-30T08:02:19.072Z,29.90
2022-11-30T08:04:51.268Z,35.07
2022-11-30T08:07:23.215Z,37.27
2022-11-30T08:09:55.140Z,28.30
2022-11-30T08:12:26.883Z,33.53
2022-11-30T08:15:19.352Z,30.97
2022-11-30T08:17:55.078Z,28.23
2022-11-30T08:20:26.814Z,32.27
2022-11-30T08:22:59.456Z,29.90
2022-11-30T08:25:31.874Z,36.57
2022-11-30T08:28:04.232Z,28.73
2022-11-30T08:30:36.340Z,31.20
2022-11-30T08:33:08.192Z,33.53
2022-11-30T08:35:40.175Z,35.13
2022-11-30T08:38:11.905Z,48.13
2022-11-30T08:40:43.715Z,33.03
2022-11-30T08:43:15.439Z,27.30
2022-11-30T08:45:47.187Z,30.20
2022-11-30T08:48:19.098Z,27.50
2022-11-30T08:50:50.963Z,29.67
2022-11-30T08:53:22.670Z,29.43
2022-11-30T08:56:11.421Z,26.63
2022-11-30T08:58:43.339Z,34.80
2022-11-30T09:01:21.318Z,37.60
2022-11-30T09:03:55.246Z,32.20
2022-11-30T09:06:29.061Z,36.50
2022-11-30T09:09:01.263Z,38.50
2022-11-30T09:11:33.908Z,31.30
2022-11-30T09:14:06.673Z,29.93
2022-11-30T09:16:38.602Z,36.85
2022-11-30T09:19:10.432Z,29.00
2022-11-30T09:21:45.370Z,33.40
2022-11-30T09:24:21.732Z,35.27
2022-11-30T09:26:56.724Z,28.90
2022-11-30T09:29:28.441Z,32.40
2022-11-30T09:32:00.091Z,26.90
2022-11-30T09:34:31.841Z,27.00
2022-11-30T09:37:03.508Z,32.00
2022-11-30T09:39:35.307Z,27.50
2022-11-30T09:42:23.239Z,26.60
2022-11-30T09:45:00.733Z,32.37
2022-11-30T09:47:43.113Z,30.70
2022-11-30T09:50:24.689Z,31.47
2022-11-30T09:53:05.227Z,30.37
2022-11-30T09:55:41.584Z,30.60
2022-11-30T09:58:39.417Z,24.57
2022-11-30T10:01:17.726Z,24.83
2022-11-30T10:03:49.760Z,29.20
2022-11-30T10:06:50.222Z,29.50
2022-11-30T10:09:53.018Z,23.60
2022-11-30T10:12:43.820Z,24.90
2022-11-30T10:15:27.708Z,28.10
2022-11-30T10:18:13.395Z,26.83
2022-11-30T10:21:06.717Z,21.50
2022-11-30T10:24:23.014Z,24.27
2022-11-30T10:26:57.104Z,19.90
2022-11-30T10:29:35.550Z,18.90
2022-11-30T10:32:17.182Z,19.50
2022-11-30T10:35:13.294Z,16.03
2022-11-30T10:37:46.714Z,22.83
2022-11-30T10:40:37.258Z,23.83
2022-11-30T10:43:23.279Z,24.70
2022-11-30T10:45:55.318Z,19.10
2022-11-30T10:48:40.719Z,22.03
2022-11-30T10:51:12.688Z,19.70
2022-11-30T10:53:44.441Z,18.70
2022-11-30T10:56:16.181Z,22.97
2022-11-30T10:58:59.858Z,30.00
2022-11-30T11:01:40.275Z,21.70
2022-11-30T11:04:25.868Z,24.10
2022-11-30T11:07:10.020Z,22.90
2022-11-30T11:09:50.651Z,21.90
2022-11-30T11:12:26.176Z,25.03
2022-11-30T11:15:09.860Z,21.73
2022-11-30T11:17:41.674Z,23.90
2022-11-30T11:20:34.999Z,23.87
2022-11-30T11:23:06.815Z,20.10
2022-11-30T11:25:43.106Z,20.57
2022-11-30T11:28:18.840Z,23.93
2022-11-30T11:30:55.069Z,20.00
2022-11-30T11:33:29.552Z,17.80
2022-11-30T11:36:07.334Z,21.50
2022-11-30T11:38:48.364Z,18.93
2022-11-30T11:41:33.914Z,19.60
2022-11-30T11:44:11.227Z,19.47
2022-11-30T11:47:05.026Z,21.00
2022-11-30T11:49:38.709Z,21.27
2022-11-30T11:52:13.440Z,19.03
2022-11-30T11:54:48.677Z,19.90
2022-11-30T11:57:27.474Z,19.13
2022-11-30T12:00:05.579Z,20.73
2022-11-30T12:03:10.954Z,17.33
2022-11-30T12:05:55.339Z,16.40
2022-11-30T12:08:58.381Z,19.30
2022-11-30T12:11:43.719Z,22.60
2022-11-30T12:14:18.532Z,21.20
2022-11-30T12:17:01.018Z,18.33
2022-11-30T12:19:40.801Z,23.90
2022-11-30T12:22:53.147Z,19.87
2022-11-30T12:25:49.729Z,18.27
2022-11-30T12:28:49.228Z,21.83
2022-11-30T12:31:22.366Z,22.00
2022-11-30T12:34:17.202Z,21.83
2022-11-30T12:37:20.073Z,19.50
2022-11-30T12:40:13.153Z,26.67
2022-11-30T12:42:55.917Z,21.10
2022-11-30T12:45:27.718Z,22.07
2022-11-30T12:48:11.737Z,19.80
2022-11-30T12:51:06.930Z,21.92
2022-11-30T12:54:01.633Z,19.47
2022-11-30T12:56:54.734Z,16.00
2022-11-30T12:59:37.656Z,18.87
2022-11-30T13:02:40.879Z,22.40
2022-11-30T13:05:22.729Z,17.53
2022-11-30T13:08:07.850Z,20.10
2022-11-30T13:10:46.025Z,20.97
2022-11-30T13:13:26.041Z,17.43
2022-11-30T13:15:59.873Z,20.53
2022-11-30T13:18:34.762Z,13.53
2022-11-30T13:21:31.062Z,15.70
2022-11-30T13:24:32.084Z,12.10
2022-11-30T13:27:16.905Z,19.47
2022-11-30T13:30:04.127Z,12.03
2022-11-30T13:35:30.758Z,17.07
2022-11-30T13:41:00.136Z,13.70
2022-11-30T13:43:36.926Z,17.75
2022-11-30T13:46:21.750Z,15.87
2022-11-30T13:49:23.957Z,15.67
2022-11-30T13:52:21.550Z,16.40
2022-11-30T13:54:58.761Z,13.90
2022-11-30T13:57:30.572Z,14.30
2022-11-30T14:00:25.142Z,16.67
2022-11-30T14:03:16.369Z,11.03
2022-11-30T14:05:59.183Z,14.60
2022-11-30T14:08:38.459Z,14.90
2022-11-30T14:11:35.725Z,14.00
2022-11-30T14:14:46.173Z,12.87
2022-11-30T14:17:23.153Z,18.70
2022-11-30T14:20:14.218Z,15.60
2022-11-30T14:22:46.628Z,20.00
2022-11-30T14:25:21.021Z,17.80
2022-11-30T14:27:57.314Z,13.93
2022-11-30T14:30:32.856Z,15.10
2022-11-30T14:33:19.934Z,20.43
2022-11-30T14:35:56.560Z,19.30
2022-11-30T14:38:31.209Z,20.53
2022-11-30T14:41:03.019Z,20.30
2022-11-30T14:43:34.696Z,25.80
2022-11-30T14:46:10.279Z,22.63
2022-11-30T14:49:02.861Z,26.10
2022-11-30T14:51:34.993Z,24.73
2022-11-30T14:54:41.762Z,25.30
2022-11-30T14:57:13.567Z,22.10
2022-11-30T14:59:49.441Z,20.47
2022-11-30T15:02:37.250Z,22.27
2022-11-30T15:05:20.816Z,24.20
2022-11-30T15:07:53.243Z,19.30
2022-11-30T15:10:34.128Z,21.67
2022-11-30T15:13:06.008Z,21.67
2022-11-30T15:15:41.715Z,30.23
2022-11-30T15:18:19.442Z,24.03
2022-11-30T15:20:57.588Z,22.80
2022-11-30T15:23:29.500Z,24.40
2022-11-30T15:26:31.401Z,31.93
2022-11-30T15:29:21.900Z,20.90
2022-11-30T15:31:56.613Z,25.90
2022-11-30T15:34:31.565Z,26.67
2022-11-30T15:37:03.607Z,21.13
2022-11-30T15:39:35.567Z,23.60
2022-11-30T15:42:08.343Z,24.67
2022-11-30T15:44:45.203Z,28.23
2022-11-30T15:47:32.769Z,24.40
2022-11-30T15:50:30.570Z,20.70
2022-11-30T15:53:22.345Z,23.67
2022-11-30T15:56:08.217Z,25.93
2022-11-30T15:58:45.954Z,30.10
2022-11-30T16:01:25.032Z,26.63
2022-11-30T16:03:58.044Z,27.13
2022-11-30T16:06:36.856Z,23.20
2022-11-30T16:09:25.603Z,25.30
2022-11-30T16:11:58.752Z,26.37
2022-11-30T16:14:30.595Z,23.93
2022-11-30T16:17:07.287Z,29.10
2022-11-30T16:19:40.769Z,26.70
2022-11-30T16:22:14.210Z,23.73
2022-11-30T16:24:45.906Z,29.80
2022-11-30T16:27:20.140Z,23.77
2022-11-30T16:29:52.929Z,27.10
2022-11-30T16:32:24.930Z,24.90
2022-11-30T16:34:56.752Z,19.30
2022-11-30T16:37:28.459Z,23.00
2022-11-30T16:40:00.178Z,22.33
2022-11-30T16:42:32.001Z,19.40
2022-11-30T16:45:04.052Z,22.07
2022-11-30T16:47:35.741Z,27.77
2022-11-30T16:50:09.136Z,21.50
2022-11-30T16:52:42.338Z,21.20
2022-11-30T16:55:19.498Z,22.07
2022-11-30T16:57:51.985Z,26.13
2022-11-30T17:00:24.065Z,16.70
2022-11-30T17:03:00.055Z,21.90
2022-11-30T17:05:32.670Z,19.43
2022-11-30T17:08:04.665Z,16.43
2022-11-30T17:10:38.037Z,19.27
2022-11-30T17:13:14.865Z,12.00
2022-11-30T17:15:46.705Z,18.93
2022-11-30T17:18:18.597Z,16.50
2022-11-30T17:20:50.539Z,16.40
2022-11-30T17:23:22.266Z,16.90
2022-11-30T17:25:55.273Z,14.37
2022-11-30T17:28:27.059Z,14.70
2022-11-30T17:30:58.845Z,14.10
2022-11-30T17:33:32.489Z,12.33
2022-11-30T17:36:06.912Z,16.23
2022-11-30T17:38:39.260Z,14.57
2022-11-30T17:41:19.137Z,19.70
2022-11-30T17:43:52.068Z,15.07
2022-11-30T17:46:24.069Z,18.40
2022-11-30T17:48:56.206Z,14.33
2022-11-30T17:51:28.126Z,14.20
2022-11-30T17:53:59.978Z,15.90
2022-11-30T17:56:31.718Z,21.43
2022-11-30T17:59:03.914Z,15.67
2022-11-30T18:01:35.876Z,19.00
2022-11-30T18:04:08.756Z,19.13
2022-11-30T18:06:40.460Z,15.10
2022-11-30T18:09:12.465Z,17.58
2022-11-30T18:11:44.157Z,14.50
2022-11-30T18:14:15.896Z,16.27
2022-11-30T18:16:47.799Z,21.10
2022-11-30T18:19:19.653Z,19.43
2022-11-30T18:21:51.471Z,19.13
2022-11-30T18:24:25.571Z,17.10
2022-11-30T18:26:57.663Z,18.10
2022-11-30T18:29:29.549Z,19.90
2022-11-30T18:32:01.287Z,18.93
2022-11-30T18:34:33.073Z,18.57
2022-11-30T18:37:04.892Z,18.13
2022-11-30T18:39:39.470Z,16.83
2022-11-30T18:42:11.250Z,16.17
2022-11-30T18:44:43.180Z,21.17
2022-11-30T18:47:14.814Z,17.73
2022-11-30T18:49:46.498Z,18.00
2022-11-30T18:52:18.300Z,18.50
2022-11-30T18:54:50.310Z,20.90
2022-11-30T18:57:22.392Z,16.97
2022-11-30T18:59:54.253Z,15.90
2022-11-30T19:02:26.198Z,19.20
2022-11-30T19:04:58.407Z,19.00
2022-11-30T19:07:30.254Z,16.37
2022-11-30T19:10:01.996Z,18.13
2022-11-30T19:12:34.679Z,13.77
2022-11-30T19:15:06.865Z,18.47
2022-11-30T19:17:38.670Z,17.63
2022-11-30T19:20:11.007Z,19.03
2022-11-30T19:22:42.858Z,20.70
2022-11-30T19:25:18.896Z,17.70
2022-11-30T19:27:50.964Z,15.60
2022-11-30T19:30:22.772Z,19.77
2022-11-30T19:32:54.432Z,19.93
2022-11-30T19:35:26.172Z,22.00
2022-11-30T19:38:02.574Z,23.17
2022-11-30T19:40:34.272Z,20.50
2022-11-30T19:43:06.064Z,24.03
2022-11-30T19:45:37.798Z,16.87
2022-11-30T19:48:09.589Z,17.23
2022-11-30T19:50:41.314Z,19.33
2022-11-30T19:53:12.976Z,23.13
2022-11-30T19:55:44.673Z,24.40
2022-11-30T19:58:16.387Z,20.30
2022-11-30T20:00:48.168Z,24.07
2022-11-30T20:03:19.963Z,23.13
2022-11-30T20:05:52.197Z,22.17
2022-11-30T20:08:23.938Z,18.47
2022-11-30T20:10:55.860Z,23.50
2022-11-30T20:13:30.457Z,21.63
2022-11-30T20:16:13.047Z,32.00
2022-11-30T20:18:50.588Z,31.63
2022-11-30T20:21:25.571Z,30.43
2022-11-30T20:23:59.736Z,27.27
2022-11-30T20:26:37.394Z,32.40
2022-11-30T20:29:16.573Z,32.33
2022-11-30T20:31:50.429Z,35.10
2022-11-30T20:34:22.289Z,35.13
2022-11-30T20:36:54.033Z,26.60
2022-11-30T20:39:25.783Z,30.20
2022-11-30T20:41:57.595Z,38.60
2022-11-30T20:44:29.938Z,35.07
2022-11-30T20:47:01.808Z,26.67
2022-11-30T20:49:33.675Z,31.08
2022-11-30T20:52:05.560Z,33.43
2022-11-30T20:54:37.293Z,30.73
2022-11-30T20:57:09.173Z,30.60
2022-11-30T20:59:42.469Z,35.33
2022-11-30T21:02:14.427Z,32.70
2022-11-30T21:04:46.569Z,28.23
2022-11-30T21:07:18.743Z,29.37
2022-11-30T21:09:50.469Z,31.23
2022-11-30T21:12:22.221Z,27.40
2022-11-30T21:14:53.872Z,30.63
2022-11-30T21:17:25.689Z,34.03
2022-11-30T21:19:57.530Z,28.77
2022-11-30T21:22:29.328Z,33.30
2022-11-30T21:25:01.078Z,29.77
2022-11-30T21:27:32.799Z,26.17
2022-11-30T21:30:05.885Z,39.70
2022-11-30T21:32:37.542Z,26.53
2022-11-30T21:35:09.621Z,26.13
2022-11-30T21:37:41.439Z,28.63
2022-11-30T21:40:13.470Z,31.03
2022-11-30T21:42:45.203Z,32.30
2022-11-30T21:45:17.184Z,29.95
2022-11-30T21:47:48.955Z,26.27
2022-11-30T21:50:25.762Z,26.00
2022-11-30T21:52:58.972Z,30.83
2022-11-30T21:55:31.423Z,24.50
2022-11-30T21:58:03.141Z,33.57
2022-11-30T22:00:34.983Z,28.83
2022-11-30T22:03:06.824Z,25.83
2022-11-30T22:05:38.614Z,30.87
2022-11-30T22:08:10.290Z,26.10
2022-11-30T22:10:41.991Z,27.67
2022-11-30T22:13:13.746Z,25.77
2022-11-30T22:15:45.474Z,26.27
2022-11-30T22:18:17.250Z,28.00
2022-11-30T22:20:48.950Z,23.07
2022-11-30T22:23:20.937Z,24.83
2022-11-30T22:25:52.726Z,25.73
2022-11-30T22:28:24.416Z,24.67
2022-11-30T22:30:56.210Z,22.80
2022-11-30T22:33:28.019Z,27.57
2022-11-30T22:36:00.477Z,25.97
2022-11-30T22:38:32.450Z,21.47
2022-11-30T22:41:09.823Z,24.63
2022-11-30T22:43:46.297Z,23.50
2022-11-30T22:46:20.611Z,27.53
2022-11-30T22:48:53.186Z,31.13
2022-11-30T22:51:27.470Z,24.27
2022-11-30T22:54:00.006Z,20.37
2022-11-30T22:56:34.986Z,29.50
2022-11-30T22:59:07.587Z,24.27
2022-11-30T23:01:43.636Z,25.83
2022-11-30T23:04:18.411Z,25.63
2022-11-30T23:06:50.801Z,26.98
2022-11-30T23:09:23.549Z,31.57
2022-11-30T23:11:55.384Z,24.57
2022-11-30T23:14:27.064Z,20.60
2022-11-30T23:16:58.741Z,28.20
2022-11-30T23:19:30.509Z,23.50
2022-11-30T23:22:02.162Z,22.27
2022-11-30T23:24:33.947Z,26.75
2022-11-30T23:27:05.642Z,24.87
2022-11-30T23:29:37.383Z,27.50
2022-11-30T23:32:09.307Z,25.27
2022-11-30T23:34:41.057Z,28.73
2022-11-30T23:37:12.769Z,24.00
2022-11-30T23:39:44.598Z,29.00
2022-11-30T23:42:16.316Z,24.50
2022-11-30T23:44:48.366Z,22.37
2022-11-30T23:47:20.275Z,25.37
2022-11-30T23:49:51.983Z,28.83
2022-11-30T23:52:23.765Z,24.87
2022-11-30T23:54:55.541Z,30.23
2022-11-30T23:57:27.394Z,28.50
2022-11-30T23:59:59.163Z,25.97
